createdAt,value
2024-03-04T00:04:59.607Z,4.32
2024-03-04T00:10:01.717Z,5.05
2024-03-04T00:15:03.793Z,4.30
2024-03-04T00:20:08.165Z,3.78
2024-03-04T00:25:15.575Z,5.30
2024-03-04T00:30:17.856Z,4.78
2024-03-04T00:35:20.757Z,3.45
2024-03-04T00:40:23.772Z,3.40
2024-03-04T00:45:26.409Z,5.35
2024-03-04T00:50:28.501Z,7.25
2024-03-04T00:55:30.892Z,6.32
2024-03-04T01:00:35.448Z,3.83
2024-03-04T01:05:37.938Z,4.00
2024-03-04T01:10:39.814Z,4.82
2024-03-04T01:15:43.434Z,4.65
2024-03-04T01:20:49.969Z,4.22
2024-03-04T01:25:52.603Z,5.10
2024-03-04T01:30:56.500Z,5.05
2024-03-04T01:35:58.511Z,7.38
2024-03-04T01:41:01.598Z,6.32
2024-03-04T01:46:03.406Z,4.95
2024-03-04T01:51:07.621Z,5.68
2024-03-04T01:56:11.935Z,4.15
2024-03-04T02:01:15.213Z,4.70
2024-03-04T02:06:18.351Z,4.80
2024-03-04T02:11:20.966Z,4.55
2024-03-04T02:16:22.872Z,4.80
2024-03-04T02:21:27.608Z,4.60
2024-03-04T02:26:30.087Z,4.70
2024-03-04T02:31:32.820Z,5.57
2024-03-04T02:36:34.878Z,6.18
2024-03-04T02:41:38.417Z,6.70
2024-03-04T02:46:43.055Z,9.27
2024-03-04T02:51:45.332Z,7.65
2024-03-04T02:56:47.735Z,7.53
2024-03-04T03:01:50.294Z,6.85
2024-03-04T03:06:52.182Z,7.20
2024-03-04T03:11:56.523Z,6.45
2024-03-04T03:16:58.536Z,6.00
2024-03-04T03:22:00.540Z,6.75
2024-03-04T03:27:03.592Z,6.63
2024-03-04T03:32:06.159Z,5.00
2024-03-04T03:37:08.621Z,5.07
2024-03-04T03:42:12.801Z,5.57
2024-03-04T03:47:15.368Z,6.95
2024-03-04T03:52:17.168Z,6.97
2024-03-04T03:57:18.995Z,6.35
2024-03-04T04:02:20.877Z,7.00
2024-03-04T04:07:22.690Z,5.43
2024-03-04T04:12:25.502Z,6.95
2024-03-04T04:17:27.699Z,7.20
2024-03-04T04:22:31.278Z,9.00
2024-03-04T04:27:33.492Z,9.45
2024-03-04T04:32:37.020Z,10.70
2024-03-04T04:37:39.078Z,11.60
2024-03-04T04:42:41.954Z,9.38
2024-03-04T04:47:44.057Z,10.32
2024-03-04T04:52:46.178Z,11.68
2024-03-04T04:57:48.423Z,10.95
2024-03-04T05:02:53.546Z,12.30
2024-03-04T05:07:57.389Z,14.02
2024-03-04T05:12:59.160Z,13.88
2024-03-04T05:18:00.947Z,15.02
2024-03-04T05:23:02.979Z,17.58
2024-03-04T05:28:07.184Z,18.42
2024-03-04T05:33:14.237Z,19.67
2024-03-04T05:38:17.014Z,18.38
2024-03-04T05:43:19.414Z,21.83
2024-03-04T05:48:21.346Z,20.50
2024-03-04T05:53:23.353Z,20.50
2024-03-04T05:58:27.682Z,21.42
2024-03-04T06:03:29.925Z,23.45
2024-03-04T06:08:34.425Z,24.42
2024-03-04T06:13:36.344Z,21.10
2024-03-04T06:18:38.520Z,27.75
2024-03-04T06:23:42.682Z,26.30
2024-03-04T06:28:44.937Z,23.52
2024-03-04T06:33:52.863Z,22.83
2024-03-04T06:38:56.952Z,21.60
2024-03-04T06:44:00.058Z,21.75
2024-03-04T06:49:02.154Z,22.75
2024-03-04T06:54:08.160Z,23.10
2024-03-04T06:59:10.216Z,22.80
2024-03-04T07:04:12.880Z,21.42
2024-03-04T07:09:15.354Z,22.08
2024-03-04T07:14:17.088Z,21.92
2024-03-04T07:19:19.004Z,21.00
2024-03-04T07:24:20.881Z,23.58
2024-03-04T07:29:27.379Z,23.48
2024-03-04T07:34:37.995Z,23.30
2024-03-04T07:39:40.020Z,24.08
2024-03-04T07:44:43.299Z,21.85
2024-03-04T07:49:45.623Z,22.20
2024-03-04T07:54:48.380Z,22.25
2024-03-04T07:59:50.272Z,23.83
2024-03-04T08:04:52.157Z,23.60
2024-03-04T08:09:54.073Z,22.60
2024-03-04T08:14:58.218Z,24.10
2024-03-04T08:20:01.497Z,23.67
2024-03-04T08:25:05.055Z,23.45
2024-03-04T08:30:08.421Z,22.60
2024-03-04T08:35:11.055Z,23.38
2024-03-04T08:40:14.353Z,22.95
2024-03-04T08:45:20.396Z,24.55
2024-03-04T08:50:23.148Z,23.83
2024-03-04T08:55:29.611Z,23.15
2024-03-04T09:00:32.099Z,24.88
2024-03-04T09:05:37.251Z,25.70
2024-03-04T09:10:40.450Z,24.73
2024-03-04T09:15:42.585Z,25.50
2024-03-04T09:20:45.196Z,26.88
2024-03-04T09:25:48.491Z,26.15
2024-03-04T09:30:50.528Z,26.58
2024-03-04T09:35:52.668Z,28.23
2024-03-04T09:40:58.183Z,27.40
2024-03-04T09:46:01.695Z,25.65
2024-03-04T09:51:05.451Z,30.08
2024-03-04T09:56:09.119Z,30.38
2024-03-04T10:01:13.392Z,32.08
2024-03-04T10:06:17.874Z,32.95
2024-03-04T10:11:19.922Z,32.05
2024-03-04T10:16:22.260Z,33.22
2024-03-04T10:21:24.441Z,34.42
2024-03-04T10:26:28.203Z,33.63
2024-03-04T10:31:30.094Z,34.58
2024-03-04T10:36:33.158Z,35.15
2024-03-04T10:41:35.569Z,31.60
2024-03-04T10:46:40.822Z,33.10
2024-03-04T10:51:44.866Z,31.67
2024-03-04T10:57:06.014Z,32.65
2024-03-04T11:02:16.357Z,30.20
2024-03-04T11:07:25.420Z,30.85
2024-03-04T11:12:30.348Z,31.52
2024-03-04T11:17:36.815Z,28.92
2024-03-04T11:22:40.118Z,31.02
2024-03-04T11:27:43.202Z,29.98
2024-03-04T11:32:45.073Z,31.33
2024-03-04T11:37:54.999Z,28.38
2024-03-04T11:42:57.167Z,28.75
2024-03-04T11:47:59.714Z,28.95
2024-03-04T11:53:03.459Z,29.58
2024-03-04T11:58:05.715Z,27.15
2024-03-04T12:03:08.018Z,25.55
2024-03-04T12:08:22.002Z,26.50
2024-03-04T12:13:39.283Z,28.17
2024-03-04T12:18:42.589Z,28.45
2024-03-04T12:23:44.651Z,26.50
2024-03-04T12:29:02.881Z,26.17
2024-03-04T12:34:06.377Z,30.50
2024-03-04T12:39:13.320Z,27.27
2024-03-04T12:44:19.926Z,27.27
2024-03-04T12:49:21.953Z,24.50
2024-03-04T12:54:27.822Z,24.77
2024-03-04T12:59:30.177Z,29.25
2024-03-04T13:04:33.179Z,22.50
2024-03-04T13:09:37.393Z,21.88
2024-03-04T13:14:39.272Z,21.00
2024-03-04T13:19:41.217Z,20.67
2024-03-04T13:24:45.753Z,19.33
2024-03-04T13:29:49.547Z,19.65
2024-03-04T13:34:52.945Z,19.17
2024-03-04T13:39:55.409Z,18.60
2024-03-04T13:44:57.234Z,18.52
2024-03-04T13:49:59.310Z,18.65
2024-03-04T13:55:01.525Z,18.40
2024-03-04T14:00:03.812Z,17.77
2024-03-04T14:05:06.172Z,16.92
2024-03-04T14:10:11.534Z,17.88
2024-03-04T14:15:17.489Z,17.85
2024-03-04T14:20:21.118Z,18.02
2024-03-04T14:25:22.876Z,16.25
2024-03-04T14:30:26.380Z,17.65
2024-03-04T14:35:30.599Z,18.00
2024-03-04T14:40:33.904Z,18.05
2024-03-04T14:45:36.175Z,18.20
2024-03-04T14:50:38.096Z,17.63
2024-03-04T14:55:42.277Z,17.27
2024-03-04T15:00:44.830Z,17.00
2024-03-04T15:05:47.477Z,17.23
2024-03-04T15:10:51.721Z,17.83
2024-03-04T15:15:53.641Z,19.27
2024-03-04T15:20:56.117Z,21.35
2024-03-04T15:25:58.050Z,20.15
2024-03-04T15:31:00.035Z,20.20
2024-03-04T15:36:13.244Z,18.60
2024-03-04T15:41:19.987Z,17.50
2024-03-04T15:46:25.629Z,18.40
2024-03-04T15:51:27.481Z,17.25
2024-03-04T15:56:32.893Z,27.42
2024-03-04T16:01:35.562Z,23.23
2024-03-04T16:06:39.812Z,20.50
2024-03-04T16:11:41.675Z,21.17
2024-03-04T16:16:43.926Z,18.58
2024-03-04T16:21:49.218Z,24.30
2024-03-04T16:26:53.819Z,19.92
2024-03-04T16:31:55.722Z,19.30
2024-03-04T16:36:57.507Z,17.83
2024-03-04T16:41:59.769Z,19.77
2024-03-04T16:47:01.518Z,19.42
2024-03-04T16:52:05.753Z,18.05
2024-03-04T16:57:07.561Z,21.08
2024-03-04T17:02:09.778Z,17.92
2024-03-04T17:07:11.595Z,20.85
2024-03-04T17:12:13.371Z,19.77
2024-03-04T17:17:17.103Z,20.45
2024-03-04T17:22:20.297Z,16.60
2024-03-04T17:27:22.460Z,17.83
2024-03-04T17:32:25.329Z,17.95
2024-03-04T17:37:27.472Z,20.95
2024-03-04T17:42:29.904Z,21.88
2024-03-04T17:47:32.226Z,31.42
2024-03-04T17:52:34.571Z,21.67
2024-03-04T17:57:36.779Z,19.67
2024-03-04T18:02:38.774Z,17.77
2024-03-04T18:07:41.825Z,18.10
2024-03-04T18:12:43.952Z,17.98
2024-03-04T18:17:47.348Z,21.42
2024-03-04T18:22:49.364Z,19.10
2024-03-04T18:27:51.376Z,19.23
2024-03-04T18:32:53.235Z,21.52
2024-03-04T18:37:55.049Z,20.23
2024-03-04T18:42:58.954Z,17.58
2024-03-04T18:48:01.563Z,17.88
2024-03-04T18:53:03.665Z,19.42
2024-03-04T18:58:06.188Z,27.23
2024-03-04T19:03:08.035Z,20.05
2024-03-04T19:08:10.069Z,18.20
2024-03-04T19:13:11.883Z,18.58
2024-03-04T19:18:15.680Z,19.90
2024-03-04T19:23:17.926Z,21.70
2024-03-04T19:28:21.523Z,81.18
2024-03-04T19:33:23.828Z,18.77
2024-03-04T19:38:25.627Z,19.10
2024-03-04T19:43:27.678Z,17.05
2024-03-04T19:48:29.428Z,18.42
2024-03-04T19:53:32.709Z,19.77
2024-03-04T19:58:36.784Z,18.58
2024-03-04T20:03:44.451Z,18.38
2024-03-04T20:08:47.056Z,19.65
2024-03-04T20:13:49.975Z,20.40
2024-03-04T20:18:52.258Z,20.33
2024-03-04T20:23:54.078Z,18.60
2024-03-04T20:28:57.518Z,20.10
2024-03-04T20:33:59.648Z,18.52
2024-03-04T20:39:01.343Z,20.38
2024-03-04T20:44:05.053Z,18.73
2024-03-04T20:49:08.599Z,21.08
2024-03-04T20:54:11.757Z,20.38
2024-03-04T20:59:13.686Z,22.92
2024-03-04T21:04:16.791Z,21.52
2024-03-04T21:09:19.011Z,21.65
2024-03-04T21:14:50.724Z,20.50
2024-03-04T21:19:53.146Z,20.92
2024-03-04T21:24:55.255Z,19.70
2024-03-04T21:29:57.228Z,18.85
2024-03-04T21:34:59.602Z,20.55
2024-03-04T21:40:02.305Z,18.45
2024-03-04T21:45:04.686Z,21.27
2024-03-04T21:50:11.038Z,20.60
2024-03-04T21:55:14.331Z,20.58
2024-03-04T22:00:20.284Z,22.70
2024-03-04T22:05:24.483Z,22.50
2024-03-04T22:10:26.845Z,23.30
2024-03-04T22:15:28.766Z,22.77
2024-03-04T22:20:32.067Z,21.60
2024-03-04T22:25:33.876Z,20.65
2024-03-04T22:30:39.065Z,22.45
2024-03-04T22:35:41.048Z,21.42
2024-03-04T22:40:44.461Z,22.73
2024-03-04T22:45:47.078Z,22.48
2024-03-04T22:50:50.438Z,23.33
2024-03-04T22:55:52.605Z,21.13
2024-03-04T23:00:57.860Z,24.10
2024-03-04T23:06:00.084Z,22.38
2024-03-04T23:11:04.338Z,21.85
2024-03-04T23:16:09.020Z,22.38
2024-03-04T23:21:11.935Z,22.80
2024-03-04T23:26:15.078Z,24.05
2024-03-04T23:31:17.076Z,23.23
2024-03-04T23:36:20.179Z,22.75
2024-03-04T23:41:22.746Z,23.25
2024-03-04T23:46:24.654Z,21.80
2024-03-04T23:51:26.497Z,23.52
2024-03-04T23:56:29.540Z,23.90
